Time;durP1;ratioP1;P1;durP2;ratioP2;P2;SDS_P1;SDS_P2;PMS_P1;PMS_P2;Temp;Humidity;BMP_temperature;BMP_pressure;BME280_temperature;BME280_humidity;BME280_pressure;Samples;Min_cycle;Max_cycle;Signal;HPM_P1;HPM_P2
2023/08/04 00:00:49;;;;;;;;;;;;;;;;;;2096629;28;19920;-82
2023/08/04 00:02:09;;;;;;;;;;;;;;;;;;2094240;28;19909;-81
2023/08/04 00:03:30;;;;;;;;;;;;;;;;;;2083659;28;19995;-81
2023/08/04 00:04:52;;;;;;;;;;;;;;;;;;2089950;28;19958;-82
2023/08/04 00:06:13;;;;;;;;;;;;;;;;;;2084356;28;19910;-82
2023/08/04 00:07:34;;;;;;;;;;;;;;;;;;2089886;28;19917;-83
2023/08/04 00:08:54;;;;;;;;;;;;;;;;;;2083788;28;19917;-80
2023/08/04 00:10:15;;;;;;;;;;;;;;;;;;2091525;28;19908;-83
2023/08/04 00:11:36;;;;;;;;;;;;;;;;;;2080436;28;19924;-82
2023/08/04 00:12:56;;;;;;;;;;;;;;;;;;2088328;28;19939;-81
2023/08/04 00:14:17;;;;;;;;;;;;;;;;;;2084894;28;20344;-81
2023/08/04 00:15:38;;;;;;;;;;;;;;;;;;2083390;28;19913;-82
2023/08/04 00:16:59;;;;;;;;;;;;;;;;;;2087724;28;20065;-81
2023/08/04 00:18:19;;;;;;;;;;;;;;;;;;2083821;28;20399;-81
2023/08/04 00:19:40;;;;;;;;;;;;;;;;;;2088260;28;19915;-82
2023/08/04 00:21:01;;;;;;;;;;;;;;;;;;2083699;28;20332;-81
2023/08/04 00:22:21;;;;;;;;;;;;;;;;;;2079719;28;20340;-83
2023/08/04 00:23:42;;;;;;;;;;;;;;;;;;2080319;28;20383;-82
2023/08/04 00:25:03;;;;;;;;;;;;;;;;;;2086430;28;19924;-81
2023/08/04 00:26:24;;;;;;;;;;;;;;;;;;2083123;28;19917;-83
2023/08/04 00:27:44;;;;;;;;;;;;;;;;;;2082384;28;19921;-83
2023/08/04 00:29:05;;;;;;;;;;;;;;;;;;2084296;28;19913;-82
2023/08/04 00:30:26;;;;;;;;;;;;;;;;;;2079547;28;20009;-82
2023/08/04 00:31:46;;;;;;;;;;;;;;;;;;2083164;28;19916;-83
2023/08/04 00:33:07;;;;;;;;;;;;;;;;;;2084995;28;20401;-82
2023/08/04 00:34:28;;;;;;;;;;;;;;;;;;2085863;28;19909;-82
2023/08/04 00:35:48;;;;;;;;;;;;;;;;;;2091757;28;19916;-82
2023/08/04 00:37:09;;;;;;;;;;;;;;;;;;2090530;28;19936;-82
2023/08/04 00:38:30;;;;;;;;;;;;;;;;;;2085970;28;19909;-82
2023/08/04 00:39:51;;;;;;;;;;;;;;;;;;2089843;28;19920;-82
2023/08/04 00:41:11;;;;;;;;;;;;;;;;;;2081913;28;19909;-81
2023/08/04 00:42:32;;;;;;;;;;;;;;;;;;2079857;28;20300;-82
2023/08/04 00:43:53;;;;;;;;;;;;;;;;;;2088651;28;19916;-82
2023/08/04 00:45:13;;;;;;;;;;;;;;;;;;2082135;28;19961;-82
2023/08/04 00:46:34;;;;;;;;;;;;;;;;;;2086742;28;19974;-81
2023/08/04 00:47:55;;;;;;;;;;;;;;;;;;2071568;28;19918;-81
2023/08/04 00:49:18;;;;;;;;;;;;;;;;;;2087794;28;19920;-82
2023/08/04 00:50:39;;;;;;;;;;;;;;;;;;2084010;28;19924;-81
2023/08/04 00:52:00;;;;;;;;;;;;;;;;;;2081329;28;20305;-82
2023/08/04 00:53:21;;;;;;;;;;;;;;;;;;2081532;28;19909;-82
2023/08/04 00:54:42;;;;;;;;;;;;;;;;;;2089714;28;19913;-82
2023/08/04 00:56:03;;;;;;;;;;;;;;;;;;2082323;28;19909;-81
2023/08/04 00:57:23;;;;;;;;;;;;;;;;;;2090514;28;19917;-81
2023/08/04 00:58:44;;;;;;;;;;;;;;;;;;2096727;28;19962;-82
2023/08/04 01:00:06;;;;;;;;;;;;;;;;;;2094614;28;19909;-82
2023/08/04 01:01:26;;;;;;;;;;;;;;;;;;2090681;28;19920;-82
2023/08/04 01:02:47;;;;;;;;;;;;;;;;;;2086737;28;19909;-81
2023/08/04 01:04:08;;;;;;;;;;;;;;;;;;2090443;28;19955;-81
2023/08/04 01:05:28;;;;;;;;;;;;;;;;;;2090202;28;19908;-81
2023/08/04 01:06:51;;;;;;;;;;;;;;;;;;2082442;28;20439;-81
2023/08/04 01:08:11;;;;;;;;;;;;;;;;;;2079728;28;19916;-81
2023/08/04 01:09:32;;;;;;;;;;;;;;;;;;2080734;28;20261;-81
2023/08/04 01:10:53;;;;;;;;;;;;;;;;;;2075185;28;19910;-82
2023/08/04 01:13:52;;;;;;;;;;;;;;;;;;2084663;28;19982;-82
2023/08/04 01:15:13;;;;;;;;;;;;;;;;;;2075750;28;19953;-82
2023/08/04 01:16:35;;;;;;;;;;;;;;;;;;2073049;28;19932;-82
2023/08/04 01:17:56;;;;;;;;;;;;;;;;;;2079461;28;19996;-82
2023/08/04 01:19:17;;;;;;;;;;;;;;;;;;2073045;28;20293;-82
2023/08/04 01:20:37;;;;;;;;;;;;;;;;;;2079286;28;19924;-82
2023/08/04 01:21:58;;;;;;;;;;;;;;;;;;2083049;28;20254;-82
2023/08/04 01:23:19;;;;;;;;;;;;;;;;;;2078675;28;20221;-82
2023/08/04 01:24:40;;;;;;;;;;;;;;;;;;2089301;28;20364;-81
2023/08/04 01:26:02;;;;;;;;;;;;;;;;;;2080501;28;20440;-81
2023/08/04 01:27:23;;;;;;;;;;;;;;;;;;2079266;28;20392;-80
2023/08/04 01:28:43;;;;;;;;;;;;;;;;;;2074490;28;19924;-81
2023/08/04 01:30:04;;;;;;;;;;;;;;;;;;2078046;28;19914;-82
2023/08/04 01:31:25;;;;;;;;;;;;;;;;;;2078881;28;19952;-82
2023/08/04 01:32:46;;;;;;;;;;;;;;;;;;2074571;28;19913;-81
2023/08/04 01:34:07;;;;;;;;;;;;;;;;;;2076830;28;20372;-82
2023/08/04 01:35:28;;;;;;;;;;;;;;;;;;2081620;28;19913;-81
2023/08/04 01:36:49;;;;;;;;;;;;;;;;;;2085823;28;19932;-82
2023/08/04 01:38:09;;;;;;;;;;;;;;;;;;2075366;28;19922;-81
2023/08/04 01:39:30;;;;;;;;;;;;;;;;;;2090906;28;20213;-82
2023/08/04 01:40:51;;;;;;;;;;;;;;;;;;2094528;28;19908;-81
2023/08/04 01:42:11;;;;;;;;;;;;;;;;;;2074864;28;20364;-81
2023/08/04 01:43:32;;;;;;;;;;;;;;;;;;2071964;28;19916;-82
2023/08/04 01:44:53;;;;;;;;;;;;;;;;;;2072919;28;19910;-82
2023/08/04 01:46:13;;;;;;;;;;;;;;;;;;2071210;28;20320;-81
2023/08/04 01:47:34;;;;;;;;;;;;;;;;;;2077275;28;19925;-82
2023/08/04 01:48:55;;;;;;;;;;;;;;;;;;2077964;28;19921;-80
2023/08/04 01:50:15;;;;;;;;;;;;;;;;;;2084733;28;19913;-82
2023/08/04 01:51:36;;;;;;;;;;;;;;;;;;2073186;28;19913;-81
2023/08/04 01:52:58;;;;;;;;;;;;;;;;;;2073894;28;19920;-81
2023/08/04 01:54:18;;;;;;;;;;;;;;;;;;2071896;28;19917;-81
2023/08/04 01:55:39;;;;;;;;;;;;;;;;;;2082304;28;19924;-81
2023/08/04 01:57:00;;;;;;;;;;;;;;;;;;2084730;28;19908;-81
2023/08/04 01:58:21;;;;;;;;;;;;;;;;;;2089837;28;20276;-81
2023/08/04 01:59:41;;;;;;;;;;;;;;;;;;2090363;28;19916;-82
2023/08/04 02:01:02;;;;;;;;;;;;;;;;;;2080484;28;19928;-82
2023/08/04 02:02:23;;;;;;;;;;;;;;;;;;2081434;28;19928;-82
2023/08/04 02:03:43;;;;;;;;;;;;;;;;;;2087845;28;19909;-82
2023/08/04 02:05:04;;;;;;;;;;;;;;;;;;2091640;28;19909;-81
2023/08/04 02:06:25;;;;;;;;;;;;;;;;;;2090920;28;19957;-81
2023/08/04 02:07:45;;;;;;;;;;;;;;;;;;2079847;28;19940;-80
2023/08/04 02:09:06;;;;;;;;;;;;;;;;;;2087125;28;19913;-81
2023/08/04 02:10:27;;;;;;;;;;;;;;;;;;2079770;28;20312;-80
2023/08/04 02:11:47;;;;;;;;;;;;;;;;;;2084381;28;19913;-80
2023/08/04 02:13:08;;;;;;;;;;;;;;;;;;2076406;28;19924;-81
2023/08/04 02:14:29;;;;;;;;;;;;;;;;;;2076501;28;19913;-80
2023/08/04 02:15:50;;;;;;;;;;;;;;;;;;2079715;28;19913;-81
2023/08/04 02:17:12;;;;;;;;;;;;;;;;;;2080862;28;20323;-80
2023/08/04 02:18:32;;;;;;;;;;;;;;;;;;2089201;28;19929;-80
2023/08/04 02:19:53;;;;;;;;;;;;;;;;;;2090082;28;19921;-81
2023/08/04 02:21:14;;;;;;;;;;;;;;;;;;2081160;28;19909;-79
2023/08/04 02:22:34;;;;;;;;;;;;;;;;;;2081968;28;19959;-81
2023/08/04 02:23:55;;;;;;;;;;;;;;;;;;2082559;28;19917;-80
2023/08/04 02:25:16;;;;;;;;;;;;;;;;;;2081765;28;19924;-81
2023/08/04 02:26:37;;;;;;;;;;;;;;;;;;2082060;28;20019;-81
2023/08/04 02:27:57;;;;;;;;;;;;;;;;;;2077868;28;19967;-81
2023/08/04 02:29:18;;;;;;;;;;;;;;;;;;2081594;28;19909;-81
2023/08/04 02:30:39;;;;;;;;;;;;;;;;;;2087972;28;19912;-80
2023/08/04 02:31:59;;;;;;;;;;;;;;;;;;2083024;28;19967;-80
2023/08/04 02:33:20;;;;;;;;;;;;;;;;;;2078383;28;19909;-81
2023/08/04 02:34:41;;;;;;;;;;;;;;;;;;2087550;28;19912;-79
2023/08/04 02:36:01;;;;;;;;;;;;;;;;;;2089398;28;19916;-80
2023/08/04 02:37:22;;;;;;;;;;;;;;;;;;2092866;28;20015;-82
2023/08/04 02:38:43;;;;;;;;;;;;;;;;;;2085674;28;19917;-80
2023/08/04 02:40:04;;;;;;;;;;;;;;;;;;2096178;28;19986;-82
2023/08/04 02:41:24;;;;;;;;;;;;;;;;;;2089735;28;20368;-81
2023/08/04 02:42:45;;;;;;;;;;;;;;;;;;2087081;28;20248;-81
2023/08/04 02:44:06;;;;;;;;;;;;;;;;;;2091261;28;19927;-81
2023/08/04 02:45:27;;;;;;;;;;;;;;;;;;2085006;28;19937;-82
2023/08/04 02:46:47;;;;;;;;;;;;;;;;;;2087364;28;20315;-80
2023/08/04 02:48:08;;;;;;;;;;;;;;;;;;2083867;28;19924;-81
2023/08/04 02:49:29;;;;;;;;;;;;;;;;;;2090728;28;20335;-81
2023/08/04 02:50:49;;;;;;;;;;;;;;;;;;2083619;28;19924;-81
2023/08/04 02:52:14;;;;;;;;;;;;;;;;;;2082502;28;19916;-80
2023/08/04 02:53:35;;;;;;;;;;;;;;;;;;2076349;28;19937;-81
2023/08/04 02:54:55;;;;;;;;;;;;;;;;;;2074262;28;19913;-80
2023/08/04 02:56:16;;;;;;;;;;;;;;;;;;2074654;28;19920;-81
2023/08/04 02:57:37;;;;;;;;;;;;;;;;;;2073134;28;19922;-81
2023/08/04 02:58:57;;;;;;;;;;;;;;;;;;2080957;28;19996;-81
2023/08/04 03:00:18;;;;;;;;;;;;;;;;;;2074156;28;19909;-81
2023/08/04 03:01:39;;;;;;;;;;;;;;;;;;2085758;28;19909;-81
2023/08/04 03:03:00;;;;;;;;;;;;;;;;;;2081440;28;19909;-81
2023/08/04 03:04:21;;;;;;;;;;;;;;;;;;2080629;28;19916;-82
2023/08/04 03:05:41;;;;;;;;;;;;;;;;;;2078289;28;20373;-82
2023/08/04 03:07:02;;;;;;;;;;;;;;;;;;2079318;28;19910;-81
2023/08/04 03:08:23;;;;;;;;;;;;;;;;;;2077789;28;19917;-81
2023/08/04 03:09:43;;;;;;;;;;;;;;;;;;2088280;28;19909;-82
2023/08/04 03:11:04;;;;;;;;;;;;;;;;;;2091093;28;20289;-81
2023/08/04 03:12:25;;;;;;;;;;;;;;;;;;2081148;28;19916;-82
2023/08/04 03:13:45;;;;;;;;;;;;;;;;;;2080126;28;19956;-81
2023/08/04 03:15:06;;;;;;;;;;;;;;;;;;2087872;28;20383;-81
2023/08/04 03:16:27;;;;;;;;;;;;;;;;;;2092799;28;19916;-82
2023/08/04 03:17:47;;;;;;;;;;;;;;;;;;2082332;28;19909;-80
2023/08/04 03:19:08;;;;;;;;;;;;;;;;;;2084334;28;20264;-81
2023/08/04 03:20:29;;;;;;;;;;;;;;;;;;2088927;28;19909;-81
2023/08/04 03:21:50;;;;;;;;;;;;;;;;;;2083726;28;19992;-81
2023/08/04 03:23:11;;;;;;;;;;;;;;;;;;2071862;28;20268;-81
2023/08/04 03:24:31;;;;;;;;;;;;;;;;;;2090150;28;19916;-81
2023/08/04 03:25:52;;;;;;;;;;;;;;;;;;2082414;28;19917;-81
2023/08/04 03:27:13;;;;;;;;;;;;;;;;;;2080896;28;20367;-81
2023/08/04 03:28:33;;;;;;;;;;;;;;;;;;2079177;28;20388;-81
2023/08/04 03:29:54;;;;;;;;;;;;;;;;;;2082732;28;20373;-80
2023/08/04 03:31:15;;;;;;;;;;;;;;;;;;2082355;28;19909;-82
2023/08/04 03:32:35;;;;;;;;;;;;;;;;;;2091804;28;19909;-81
2023/08/04 03:33:56;;;;;;;;;;;;;;;;;;2091782;28;20287;-82
2023/08/04 03:35:17;;;;;;;;;;;;;;;;;;2082659;28;19913;-82
2023/08/04 03:36:38;;;;;;;;;;;;;;;;;;2083646;28;20330;-80
2023/08/04 03:37:58;;;;;;;;;;;;;;;;;;2086795;28;19999;-81
2023/08/04 03:39:19;;;;;;;;;;;;;;;;;;2095594;28;19931;-82
2023/08/04 03:40:40;;;;;;;;;;;;;;;;;;2091552;28;19913;-81
2023/08/04 03:42:00;;;;;;;;;;;;;;;;;;2091210;28;19916;-81
2023/08/04 03:43:21;;;;;;;;;;;;;;;;;;2091553;28;19931;-81
2023/08/04 03:44:42;;;;;;;;;;;;;;;;;;2092108;28;19915;-81
2023/08/04 03:46:02;;;;;;;;;;;;;;;;;;2074483;28;19920;-81
2023/08/04 03:47:23;;;;;;;;;;;;;;;;;;2081550;28;19920;-81
2023/08/04 03:48:44;;;;;;;;;;;;;;;;;;2087822;28;20470;-81
2023/08/04 03:50:04;;;;;;;;;;;;;;;;;;2094009;28;19931;-80
2023/08/04 03:51:25;;;;;;;;;;;;;;;;;;2099237;28;19912;-81
2023/08/04 03:52:46;;;;;;;;;;;;;;;;;;2099270;28;19921;-81
2023/08/04 03:54:07;;;;;;;;;;;;;;;;;;2090247;28;19920;-82
2023/08/04 03:55:27;;;;;;;;;;;;;;;;;;2091803;28;19908;-82
2023/08/04 03:56:48;;;;;;;;;;;;;;;;;;2086922;28;19909;-81
2023/08/04 03:58:09;;;;;;;;;;;;;;;;;;2080853;28;20040;-82
2023/08/04 03:59:29;;;;;;;;;;;;;;;;;;2088788;28;19909;-81
2023/08/04 04:00:50;;;;;;;;;;;;;;;;;;2092478;28;20324;-82
2023/08/04 04:02:11;;;;;;;;;;;;;;;;;;2093232;28;19916;-81
2023/08/04 04:03:31;;;;;;;;;;;;;;;;;;2083312;28;20339;-82
2023/08/04 04:04:52;;;;;;;;;;;;;;;;;;2089405;28;19909;-81
2023/08/04 04:06:13;;;;;;;;;;;;;;;;;;2092160;28;19919;-82
2023/08/04 04:07:34;;;;;;;;;;;;;;;;;;2093672;28;19916;-81
2023/08/04 04:08:54;;;;;;;;;;;;;;;;;;2082917;28;20000;-81
2023/08/04 04:10:15;;;;;;;;;;;;;;;;;;2090286;28;19909;-81
2023/08/04 04:11:36;;;;;;;;;;;;;;;;;;2083512;28;19983;-81
2023/08/04 04:12:57;;;;;;;;;;;;;;;;;;2084081;28;19913;-81
2023/08/04 04:14:17;;;;;;;;;;;;;;;;;;2082995;28;20397;-82
2023/08/04 04:15:38;;;;;;;;;;;;;;;;;;2081554;28;19913;-81
2023/08/04 04:16:59;;;;;;;;;;;;;;;;;;2087037;28;19909;-79
2023/08/04 04:18:19;;;;;;;;;;;;;;;;;;2071893;28;19925;-81
2023/08/04 04:19:41;;;;;;;;;;;;;;;;;;2088451;28;19909;-82
2023/08/04 04:21:01;;;;;;;;;;;;;;;;;;2081866;28;19916;-81
2023/08/04 04:22:22;;;;;;;;;;;;;;;;;;2088593;28;19981;-82
2023/08/04 04:23:43;;;;;;;;;;;;;;;;;;2090908;28;20362;-82
2023/08/04 04:25:03;;;;;;;;;;;;;;;;;;2082101;28;20404;-82
2023/08/04 04:26:24;;;;;;;;;;;;;;;;;;2079158;28;19910;-79
2023/08/04 04:27:45;;;;;;;;;;;;;;;;;;2080038;28;19913;-82
2023/08/04 04:29:05;;;;;;;;;;;;;;;;;;2078763;28;19917;-82
2023/08/04 04:30:26;;;;;;;;;;;;;;;;;;2089151;28;19909;-81
2023/08/04 04:31:47;;;;;;;;;;;;;;;;;;2085586;28;19913;-80
2023/08/04 04:33:08;;;;;;;;;;;;;;;;;;2085237;28;20390;-81
2023/08/04 04:34:28;;;;;;;;;;;;;;;;;;2080161;28;19916;-81
2023/08/04 04:35:49;;;;;;;;;;;;;;;;;;2096080;28;20387;-80
2023/08/04 04:37:10;;;;;;;;;;;;;;;;;;2094724;28;19908;-80
2023/08/04 04:38:30;;;;;;;;;;;;;;;;;;2090327;28;19917;-81
2023/08/04 04:39:51;;;;;;;;;;;;;;;;;;2097621;28;19915;-81
2023/08/04 04:41:12;;;;;;;;;;;;;;;;;;2089616;28;19924;-81
2023/08/04 04:42:33;;;;;;;;;;;;;;;;;;2088874;28;20372;-81
2023/08/04 04:43:53;;;;;;;;;;;;;;;;;;2097322;28;19915;-81
2023/08/04 04:45:14;;;;;;;;;;;;;;;;;;2088629;28;19932;-80
2023/08/04 04:46:35;;;;;;;;;;;;;;;;;;2079236;28;19920;-80
2023/08/04 04:47:55;;;;;;;;;;;;;;;;;;2081171;28;19916;-80
2023/08/04 04:49:16;;;;;;;;;;;;;;;;;;2079141;28;19921;-81
2023/08/04 04:50:37;;;;;;;;;;;;;;;;;;2089563;28;20346;-81
2023/08/04 04:51:58;;;;;;;;;;;;;;;;;;2096557;28;19932;-81
2023/08/04 04:53:18;;;;;;;;;;;;;;;;;;2090777;28;20367;-80
2023/08/04 04:54:39;;;;;;;;;;;;;;;;;;2080616;28;19991;-80
2023/08/04 04:56:00;;;;;;;;;;;;;;;;;;2074613;28;19933;-81
2023/08/04 04:57:21;;;;;;;;;;;;;;;;;;2080960;28;19909;-81
2023/08/04 04:58:42;;;;;;;;;;;;;;;;;;2081502;28;19940;-81
2023/08/04 05:00:03;;;;;;;;;;;;;;;;;;2075004;28;19916;-82
2023/08/04 05:01:24;;;;;;;;;;;;;;;;;;2079983;28;19909;-81
2023/08/04 05:02:44;;;;;;;;;;;;;;;;;;2083819;28;19913;-83
2023/08/04 05:04:05;;;;;;;;;;;;;;;;;;2082016;28;20317;-81
2023/08/04 05:05:26;;;;;;;;;;;;;;;;;;2075808;28;20328;-82
2023/08/04 05:06:47;;;;;;;;;;;;;;;;;;2070935;28;20004;-81
2023/08/04 05:08:07;;;;;;;;;;;;;;;;;;2081768;28;20365;-81
2023/08/04 05:09:28;;;;;;;;;;;;;;;;;;2072704;28;19925;-81
2023/08/04 05:10:49;;;;;;;;;;;;;;;;;;2072978;28;19909;-81
2023/08/04 05:12:09;;;;;;;;;;;;;;;;;;2070412;28;19910;-81
2023/08/04 05:13:30;;;;;;;;;;;;;;;;;;2073454;28;19981;-82
2023/08/04 05:14:51;;;;;;;;;;;;;;;;;;2072005;28;20429;-81
2023/08/04 05:16:11;;;;;;;;;;;;;;;;;;2087111;28;19909;-79
2023/08/04 05:17:35;;;;;;;;;;;;;;;;;;2081880;28;19909;-81
2023/08/04 05:18:55;;;;;;;;;;;;;;;;;;2090501;28;19917;-80
2023/08/04 05:20:16;;;;;;;;;;;;;;;;;;2081026;28;19917;-80
2023/08/04 05:21:37;;;;;;;;;;;;;;;;;;2090122;28;19913;-81
2023/08/04 05:22:57;;;;;;;;;;;;;;;;;;2082291;28;19913;-82
2023/08/04 05:24:18;;;;;;;;;;;;;;;;;;2084416;28;19909;-82
2023/08/04 05:25:39;;;;;;;;;;;;;;;;;;2081993;28;20360;-82
2023/08/04 05:26:59;;;;;;;;;;;;;;;;;;2084957;28;19909;-81
2023/08/04 05:28:23;;;;;;;;;;;;;;;;;;2083259;28;19909;-81
2023/08/04 05:29:44;;;;;;;;;;;;;;;;;;2089244;28;19917;-81
2023/08/04 05:31:04;;;;;;;;;;;;;;;;;;2081238;28;19920;-83
2023/08/04 05:32:25;;;;;;;;;;;;;;;;;;2079676;28;19917;-81
2023/08/04 05:33:46;;;;;;;;;;;;;;;;;;2074340;28;19917;-81
2023/08/04 05:35:09;;;;;;;;;;;;;;;;;;2080394;28;19909;-82
2023/08/04 05:36:29;;;;;;;;;;;;;;;;;;2074440;28;19910;-81
2023/08/04 05:37:50;;;;;;;;;;;;;;;;;;2070379;28;19932;-81
2023/08/04 05:39:11;;;;;;;;;;;;;;;;;;2086433;28;20398;-82
2023/08/04 05:40:31;;;;;;;;;;;;;;;;;;2087274;28;20075;-82
2023/08/04 05:41:52;;;;;;;;;;;;;;;;;;2088858;28;19909;-82
2023/08/04 05:43:13;;;;;;;;;;;;;;;;;;2097015;28;20351;-80
2023/08/04 05:44:33;;;;;;;;;;;;;;;;;;2090141;28;20379;-80
2023/08/04 05:45:54;;;;;;;;;;;;;;;;;;2078491;28;19913;-80
2023/08/04 05:47:15;;;;;;;;;;;;;;;;;;2091920;28;19924;-81
2023/08/04 05:48:36;;;;;;;;;;;;;;;;;;2088765;28;20402;-80
2023/08/04 05:49:57;;;;;;;;;;;;;;;;;;2081091;28;19973;-81
2023/08/04 05:51:17;;;;;;;;;;;;;;;;;;2087187;28;19913;-81
2023/08/04 05:52:38;;;;;;;;;;;;;;;;;;2086809;28;19948;-81
2023/08/04 05:53:59;;;;;;;;;;;;;;;;;;2087599;28;19928;-81
2023/08/04 05:55:19;;;;;;;;;;;;;;;;;;2091224;28;19909;-81
2023/08/04 05:56:40;;;;;;;;;;;;;;;;;;2087990;28;19909;-81
2023/08/04 05:58:01;;;;;;;;;;;;;;;;;;2078324;28;19909;-81
2023/08/04 05:59:21;;;;;;;;;;;;;;;;;;2087489;28;20304;-82
2023/08/04 06:00:42;;;;;;;;;;;;;;;;;;2090891;28;19909;-81
2023/08/04 06:02:03;;;;;;;;;;;;;;;;;;2091876;28;19916;-81
2023/08/04 06:03:23;;;;;;;;;;;;;;;;;;2082001;28;20305;-81
2023/08/04 06:04:44;;;;;;;;;;;;;;;;;;2079765;28;19995;-81
2023/08/04 06:06:05;;;;;;;;;;;;;;;;;;2078713;28;19917;-81
2023/08/04 06:07:25;;;;;;;;;;;;;;;;;;2088486;28;19909;-81
2023/08/04 06:08:46;;;;;;;;;;;;;;;;;;2080706;28;20364;-81
2023/08/04 06:10:07;;;;;;;;;;;;;;;;;;2078967;28;19917;-81
2023/08/04 06:11:28;;;;;;;;;;;;;;;;;;2082527;28;20249;-81
2023/08/04 06:12:49;;;;;;;;;;;;;;;;;;2082293;28;19915;-81
2023/08/04 06:14:09;;;;;;;;;;;;;;;;;;2082342;28;19913;-81
2023/08/04 06:15:30;;;;;;;;;;;;;;;;;;2081895;28;19928;-81
2023/08/04 06:16:51;;;;;;;;;;;;;;;;;;2083760;28;19909;-81
2023/08/04 06:18:11;;;;;;;;;;;;;;;;;;2083242;28;20356;-80
2023/08/04 06:19:32;;;;;;;;;;;;;;;;;;2082811;28;19917;-81
2023/08/04 06:20:53;;;;;;;;;;;;;;;;;;2082960;28;19971;-81
2023/08/04 06:22:15;;;;;;;;;;;;;;;;;;2088763;28;19909;-81
2023/08/04 06:23:35;;;;;;;;;;;;;;;;;;2081851;28;19918;-81
2023/08/04 06:24:56;;;;;;;;;;;;;;;;;;2079603;28;19913;-80
2023/08/04 06:26:17;;;;;;;;;;;;;;;;;;2082617;28;20400;-80
2023/08/04 06:27:38;;;;;;;;;;;;;;;;;;2081369;28;19917;-80
2023/08/04 06:28:58;;;;;;;;;;;;;;;;;;2077280;28;19913;-80
2023/08/04 06:30:19;;;;;;;;;;;;;;;;;;2078552;28;19910;-81
2023/08/04 06:31:40;;;;;;;;;;;;;;;;;;2078515;28;19924;-82
2023/08/04 06:33:00;;;;;;;;;;;;;;;;;;2072690;28;20360;-82
2023/08/04 06:34:21;;;;;;;;;;;;;;;;;;2074948;28;19910;-81
2023/08/04 06:35:44;;;;;;;;;;;;;;;;;;2081333;28;20384;-81
2023/08/04 06:37:04;;;;;;;;;;;;;;;;;;2077379;28;19913;-81
2023/08/04 06:38:25;;;;;;;;;;;;;;;;;;2075854;28;20154;-81
2023/08/04 06:39:46;;;;;;;;;;;;;;;;;;2090878;28;20260;-81
2023/08/04 06:41:06;;;;;;;;;;;;;;;;;;2090599;28;19936;-81
2023/08/04 06:42:27;;;;;;;;;;;;;;;;;;2074205;28;19917;-81
2023/08/04 06:43:48;;;;;;;;;;;;;;;;;;2078723;28;19913;-81
2023/08/04 06:45:09;;;;;;;;;;;;;;;;;;2078110;28;19913;-80
2023/08/04 06:46:29;;;;;;;;;;;;;;;;;;2083562;28;19909;-81
2023/08/04 06:47:50;;;;;;;;;;;;;;;;;;2084607;28;19913;-81
2023/08/04 06:49:11;;;;;;;;;;;;;;;;;;2080600;28;19917;-81
2023/08/04 06:50:31;;;;;;;;;;;;;;;;;;2084890;28;19927;-81
2023/08/04 06:51:52;;;;;;;;;;;;;;;;;;2093209;28;19920;-83
2023/08/04 06:53:13;;;;;;;;;;;;;;;;;;2091773;28;19999;-80
2023/08/04 06:54:33;;;;;;;;;;;;;;;;;;2091926;28;19909;-81
2023/08/04 06:55:54;;;;;;;;;;;;;;;;;;2087714;28;20229;-81
2023/08/04 06:57:15;;;;;;;;;;;;;;;;;;2088865;28;19935;-81
2023/08/04 06:58:36;;;;;;;;;;;;;;;;;;2083491;28;19944;-81
2023/08/04 06:59:56;;;;;;;;;;;;;;;;;;2081155;28;19921;-81
2023/08/04 07:01:17;;;;;;;;;;;;;;;;;;2079633;28;19909;-81
2023/08/04 07:02:38;;;;;;;;;;;;;;;;;;2081749;28;19917;-81
2023/08/04 07:03:58;;;;;;;;;;;;;;;;;;2079879;28;19909;-81
2023/08/04 07:05:19;;;;;;;;;;;;;;;;;;2083731;28;19921;-81
2023/08/04 07:06:40;;;;;;;;;;;;;;;;;;2081733;28;19916;-81
2023/08/04 07:08:01;;;;;;;;;;;;;;;;;;2080527;28;20080;-82
2023/08/04 07:09:21;;;;;;;;;;;;;;;;;;2074133;28;19917;-81
2023/08/04 07:10:42;;;;;;;;;;;;;;;;;;2074950;28;19909;-82
2023/08/04 07:12:03;;;;;;;;;;;;;;;;;;2074332;28;19917;-82
2023/08/04 07:13:24;;;;;;;;;;;;;;;;;;2075018;28;19932;-82
2023/08/04 07:14:44;;;;;;;;;;;;;;;;;;2075120;28;19976;-81
2023/08/04 07:16:05;;;;;;;;;;;;;;;;;;2074392;28;19921;-82
2023/08/04 07:17:26;;;;;;;;;;;;;;;;;;2075022;28;19917;-84
2023/08/04 07:18:47;;;;;;;;;;;;;;;;;;2079921;28;19924;-82
2023/08/04 07:20:08;;;;;;;;;;;;;;;;;;2083410;28;19921;-82
2023/08/04 07:21:28;;;;;;;;;;;;;;;;;;2082771;28;19909;-83
2023/08/04 07:22:49;;;;;;;;;;;;;;;;;;2083138;28;19909;-82
2023/08/04 07:24:10;;;;;;;;;;;;;;;;;;2079002;28;19913;-83
2023/08/04 07:25:30;;;;;;;;;;;;;;;;;;2089631;28;19955;-83
2023/08/04 07:26:51;;;;;;;;;;;;;;;;;;2081521;28;20375;-82
2023/08/04 07:28:12;;;;;;;;;;;;;;;;;;2080563;28;19976;-83
2023/08/04 07:29:34;;;;;;;;;;;;;;;;;;2082948;28;19917;-82
2023/08/04 07:30:56;;;;;;;;;;;;;;;;;;2081790;28;19932;-82
2023/08/04 07:32:17;;;;;;;;;;;;;;;;;;2071890;28;19915;-82
2023/08/04 07:33:37;;;;;;;;;;;;;;;;;;2079402;28;19919;-81
2023/08/04 07:34:58;;;;;;;;;;;;;;;;;;2074610;28;19913;-83
2023/08/04 07:36:19;;;;;;;;;;;;;;;;;;2071956;28;19909;-83
2023/08/04 07:37:39;;;;;;;;;;;;;;;;;;2072103;28;19909;-82
2023/08/04 07:39:00;;;;;;;;;;;;;;;;;;2082004;28;19917;-82
2023/08/04 07:40:21;;;;;;;;;;;;;;;;;;2079569;28;19924;-82
2023/08/04 07:41:41;;;;;;;;;;;;;;;;;;2078682;28;19909;-84
2023/08/04 07:43:02;;;;;;;;;;;;;;;;;;2078123;28;19920;-83
2023/08/04 07:44:23;;;;;;;;;;;;;;;;;;2082954;28;19959;-83
2023/08/04 07:45:44;;;;;;;;;;;;;;;;;;2083910;28;19921;-82
2023/08/04 07:47:04;;;;;;;;;;;;;;;;;;2075321;28;19909;-83
2023/08/04 07:48:25;;;;;;;;;;;;;;;;;;2082188;28;19928;-84
2023/08/04 07:49:46;;;;;;;;;;;;;;;;;;2080892;28;20601;-83
2023/08/04 07:51:07;;;;;;;;;;;;;;;;;;2078824;28;19928;-83
2023/08/04 07:52:27;;;;;;;;;;;;;;;;;;2089384;28;20364;-83
2023/08/04 07:53:48;;;;;;;;;;;;;;;;;;2091569;28;19912;-84
2023/08/04 07:55:09;;;;;;;;;;;;;;;;;;2090543;28;19909;-82
2023/08/04 07:56:30;;;;;;;;;;;;;;;;;;2087526;28;19909;-83
2023/08/04 07:57:50;;;;;;;;;;;;;;;;;;2080200;28;19909;-84
2023/08/04 07:59:11;;;;;;;;;;;;;;;;;;2080077;28;19917;-84
2023/08/04 08:00:32;;;;;;;;;;;;;;;;;;2071431;28;19921;-83
2023/08/04 08:01:53;;;;;;;;;;;;;;;;;;2091184;28;19909;-84
2023/08/04 08:03:13;;;;;;;;;;;;;;;;;;2090496;28;20288;-83
2023/08/04 08:04:34;;;;;;;;;;;;;;;;;;2072939;28;19909;-84
2023/08/04 08:05:55;;;;;;;;;;;;;;;;;;2081666;28;19916;-82
2023/08/04 08:07:15;;;;;;;;;;;;;;;;;;2083095;28;19909;-84
2023/08/04 08:08:36;;;;;;;;;;;;;;;;;;2082833;28;19910;-85
2023/08/04 08:09:57;;;;;;;;;;;;;;;;;;2080964;28;19913;-82
2023/08/04 08:11:17;;;;;;;;;;;;;;;;;;2080053;28;19943;-82
2023/08/04 08:12:38;;;;;;;;;;;;;;;;;;2082835;28;20339;-83
2023/08/04 08:13:59;;;;;;;;;;;;;;;;;;2082865;28;19910;-83
2023/08/04 08:15:20;;;;;;;;;;;;;;;;;;2081602;28;20018;-82
2023/08/04 08:16:40;;;;;;;;;;;;;;;;;;2080074;28;19913;-83
2023/08/04 08:18:01;;;;;;;;;;;;;;;;;;2081814;28;20308;-84
2023/08/04 08:19:22;;;;;;;;;;;;;;;;;;2087109;28;19923;-84
2023/08/04 08:20:42;;;;;;;;;;;;;;;;;;2081672;28;19917;-85
2023/08/04 08:22:03;;;;;;;;;;;;;;;;;;2082028;28;19909;-84
2023/08/04 08:23:24;;;;;;;;;;;;;;;;;;2088153;28;20387;-85
2023/08/04 08:24:45;;;;;;;;;;;;;;;;;;2082321;28;19917;-84
2023/08/04 08:26:05;;;;;;;;;;;;;;;;;;2078944;28;19909;-85
2023/08/04 08:27:26;;;;;;;;;;;;;;;;;;2079822;28;20260;-84
2023/08/04 08:28:47;;;;;;;;;;;;;;;;;;2081623;28;19909;-84
2023/08/04 08:30:07;;;;;;;;;;;;;;;;;;2082266;28;20399;-85
2023/08/04 08:31:28;;;;;;;;;;;;;;;;;;2081424;28;20384;-85
2023/08/04 08:32:49;;;;;;;;;;;;;;;;;;2078645;28;19927;-85
2023/08/04 08:34:09;;;;;;;;;;;;;;;;;;2079167;28;20377;-86
2023/08/04 08:35:30;;;;;;;;;;;;;;;;;;2080290;28;19931;-86
2023/08/04 08:36:51;;;;;;;;;;;;;;;;;;2079323;28;19917;-86
2023/08/04 08:38:12;;;;;;;;;;;;;;;;;;2082955;28;19913;-85
2023/08/04 08:39:32;;;;;;;;;;;;;;;;;;2074674;28;20263;-86
2023/08/04 08:40:53;;;;;;;;;;;;;;;;;;2075346;28;19918;-86
2023/08/04 08:42:14;;;;;;;;;;;;;;;;;;2073849;28;19909;-84
2023/08/04 08:43:34;;;;;;;;;;;;;;;;;;2083832;28;20281;-83
2023/08/04 08:44:55;;;;;;;;;;;;;;;;;;2080815;28;19909;-86
2023/08/04 08:46:16;;;;;;;;;;;;;;;;;;2080225;28;19913;-85
2023/08/04 08:47:37;;;;;;;;;;;;;;;;;;2080898;28;19910;-85
2023/08/04 08:48:57;;;;;;;;;;;;;;;;;;2083421;28;19913;-85
2023/08/04 08:50:18;;;;;;;;;;;;;;;;;;2086300;28;19920;-85
2023/08/04 08:51:39;;;;;;;;;;;;;;;;;;2090823;28;19912;-85
2023/08/04 08:53:00;;;;;;;;;;;;;;;;;;2071486;28;19909;-85
2023/08/04 08:54:20;;;;;;;;;;;;;;;;;;2083665;28;20379;-83
2023/08/04 08:55:42;;;;;;;;;;;;;;;;;;2086525;28;20037;-85
2023/08/04 08:57:03;;;;;;;;;;;;;;;;;;2082562;28;19909;-85
2023/08/04 08:58:23;;;;;;;;;;;;;;;;;;2078480;28;19916;-84
2023/08/04 08:59:44;;;;;;;;;;;;;;;;;;2078249;28;19917;-82
2023/08/04 09:01:05;;;;;;;;;;;;;;;;;;2077477;28;19936;-86
2023/08/04 09:02:26;;;;;;;;;;;;;;;;;;2071422;28;19917;-85
2023/08/04 09:03:46;;;;;;;;;;;;;;;;;;2079117;28;20280;-86
2023/08/04 09:05:07;;;;;;;;;;;;;;;;;;2080913;28;19916;-83
2023/08/04 09:06:28;;;;;;;;;;;;;;;;;;2082276;28;19913;-86
2023/08/04 09:07:49;;;;;;;;;;;;;;;;;;2081847;28;19909;-85
2023/08/04 09:09:09;;;;;;;;;;;;;;;;;;2082537;28;19909;-86
2023/08/04 09:10:33;;;;;;;;;;;;;;;;;;2080417;28;19917;-84
2023/08/04 09:11:54;;;;;;;;;;;;;;;;;;2082702;28;19913;-84
2023/08/04 09:13:15;;;;;;;;;;;;;;;;;;2076717;28;19916;-85